TimeCST,TemperatureF,Dew PointF,Humidity,Sea Level PressureIn,VisibilityMPH,Wind Direction,Wind SpeedMPH,Gust SpeedMPH,PrecipitationIn,Events,Conditions,WindDirDegrees,DateUTC
12:09 AM,15.1,10.9,84,30.03,1.0,North,20.7,31.1,0.01,Snow,Light Snow,360,2014-01-05 06:09:00
12:26 AM,15.1,10.9,84,30.04,1.2,North,20.7,27.6,0.01,Snow,Light Snow,10,2014-01-05 06:26:00
12:37 AM,15.1,10.9,84,30.04,1.0,North,18.4,28.8,0.01,Snow,Light Snow,10,2014-01-05 06:37:00
12:53 AM,15.1,10.9,84,30.10,1.2,North,15.0,27.6,0.01,Snow,Light Snow,10,2014-01-05 06:53:00
1:05 AM,15.1,12.0,88,30.04,0.8,North,10.4,-,0.00,Snow,Light Snow,360,2014-01-05 07:05:00
1:17 AM,15.1,10.9,84,30.05,0.8,North,15.0,24.2,0.01,Snow,Light Snow,360,2014-01-05 07:17:00
1:50 AM,15.8,10.4,79,30.06,1.0,North,13.8,23.0,0.01,Snow,Light Snow,360,2014-01-05 07:50:00
1:53 AM,15.1,10.9,84,30.11,1.0,North,16.1,-,0.01,Snow,Light Snow,350,2014-01-05 07:53:00
2:01 AM,15.1,10.9,84,30.06,1.2,North,13.8,23.0,0.00,Snow,Light Snow,360,2014-01-05 08:01:00
2:10 AM,15.1,10.9,84,30.06,0.8,North,16.1,27.6,0.00,Snow,Light Snow,360,2014-01-05 08:10:00
2:26 AM,15.1,10.9,84,30.06,0.8,North,15.0,25.3,0.01,Snow,Light Snow,360,2014-01-05 08:26:00
2:41 AM,15.1,12.0,88,30.05,1.0,North,18.4,24.2,0.01,Snow,Light Snow,10,2014-01-05 08:41:00
2:53 AM,15.1,12.0,88,30.12,0.8,North,13.8,24.2,0.01,Snow,Light Snow,360,2014-01-05 08:53:00
3:16 AM,15.1,10.9,84,30.07,1.0,North,18.4,24.2,0.01,Snow,Light Snow,360,2014-01-05 09:16:00
3:50 AM,14.0,10.4,86,30.08,1.2,North,16.1,27.6,0.01,Snow,Light Snow,360,2014-01-05 09:50:00
3:53 AM,14.0,10.0,84,30.14,1.2,North,19.6,27.6,0.01,Snow,Light Snow,360,2014-01-05 09:53:00
4:00 AM,14.0,10.0,84,30.09,1.8,North,12.7,24.2,0.00,Snow,Light Snow,360,2014-01-05 10:00:00
4:12 AM,14.0,10.0,84,30.07,2.0,North,17.3,27.6,0.00,Snow,Light Snow,360,2014-01-05 10:12:00
4:23 AM,12.9,9.0,84,30.08,1.2,North,19.6,26.5,0.00,Snow,Light Snow,350,2014-01-05 10:23:00
4:50 AM,12.2,8.6,85,30.09,1.0,North,13.8,23.0,0.00,Snow,Light Snow,350,2014-01-05 10:50:00
4:53 AM,12.9,9.0,84,30.16,1.0,North,15.0,23.0,0.00,Snow,Light Snow,350,2014-01-05 10:53:00
4:59 AM,12.9,9.0,84,30.10,0.8,North,20.7,28.8,0.00,Snow,Light Snow,350,2014-01-05 10:59:00
5:09 AM,12.0,8.1,84,30.10,1.0,North,23.0,32.2,0.00,Snow,Light Snow,350,2014-01-05 11:09:00
5:22 AM,12.0,7.0,80,30.10,1.2,North,18.4,29.9,0.00,Snow,Light Snow,350,2014-01-05 11:22:00
5:29 AM,10.9,7.0,84,30.10,0.8,North,20.7,29.9,0.00,Snow,Light Snow,350,2014-01-05 11:29:00
5:53 AM,10.9,7.0,84,30.18,1.0,North,16.1,26.5,0.00,Snow,Light Snow,350,2014-01-05 11:53:00
6:53 AM,10.0,6.1,84,30.21,1.5,North,18.4,24.2,0.01,Snow,Light Snow,350,2014-01-05 12:53:00
7:01 AM,10.0,5.0,80,30.14,2.0,North,20.7,31.1,0.00,Snow,Light Snow,350,2014-01-05 13:01:00
7:23 AM,10.0,3.0,73,30.16,5.0,NNW,15.0,24.2,0.00,Snow,Light Snow,340,2014-01-05 13:23:00
7:53 AM,9.0,3.0,77,30.25,2.5,NNW,19.6,27.6,0.00,Snow,Light Snow,340,2014-01-05 13:53:00
8:11 AM,8.1,3.0,80,30.18,1.8,NNW,21.9,31.1,0.00,Snow,Light Snow,340,2014-01-05 14:11:00
8:23 AM,8.1,1.9,76,30.19,3.0,NNW,20.7,32.2,0.00,Snow,Light Snow,340,2014-01-05 14:23:00
8:53 AM,8.1,-0.9,67,30.28,9.0,NNW,20.7,29.9,0.00,,Overcast,340,2014-01-05 14:53:00
9:53 AM,9.0,-2.9,59,30.32,10.0,North,21.9,31.1,0.00,,Overcast,350,2014-01-05 15:53:00
10:53 AM,10.0,-4.0,53,30.35,10.0,North,18.4,34.5,N/A,,Overcast,350,2014-01-05 16:53:00
11:53 AM,10.0,-4.0,53,30.36,10.0,NNW,17.3,29.9,N/A,,Overcast,340,2014-01-05 17:53:00
12:53 PM,12.0,-2.9,51,30.36,10.0,NNW,19.6,28.8,N/A,,Clear,340,2014-01-05 18:53:00
1:53 PM,10.9,-2.9,54,30.39,10.0,North,17.3,28.8,N/A,,Clear,350,2014-01-05 19:53:00
2:53 PM,10.9,-5.1,49,30.42,10.0,North,17.3,31.1,N/A,,Mostly Cloudy,350,2014-01-05 20:53:00
3:53 PM,10.9,-4.0,51,30.46,10.0,North,13.8,29.9,N/A,,Overcast,350,2014-01-05 21:53:00
4:53 PM,10.0,-4.0,53,30.50,10.0,North,16.1,23.0,N/A,,Overcast,350,2014-01-05 22:53:00
5:53 PM,9.0,-4.0,56,30.54,10.0,NNW,15.0,20.7,N/A,,Overcast,340,2014-01-05 23:53:00
6:53 PM,7.0,-5.1,58,30.56,10.0,NNW,10.4,-,N/A,,Mostly Cloudy,340,2014-01-06 00:53:00
7:53 PM,3.0,-6.0,66,30.58,10.0,NNW,6.9,-,N/A,,Partly Cloudy,330,2014-01-06 01:53:00
8:53 PM,1.0,-8.0,66,30.59,10.0,NNW,8.1,-,N/A,,Clear,340,2014-01-06 02:53:00
9:53 PM,-2.0,-9.0,72,30.61,10.0,NW,4.6,-,N/A,,Clear,310,2014-01-06 03:53:00
10:53 PM,-0.9,-9.9,66,30.62,10.0,NW,8.1,-,N/A,,Clear,320,2014-01-06 04:53:00
11:53 PM,-2.9,-11.0,68,30.63,10.0,NNW,9.2,-,N/A,,Clear,340,2014-01-06 05:53:00